createdAt,value
2017-09-21T00:01:53.503Z,9.27
2017-09-21T00:04:21.016Z,20.03
2017-09-21T00:06:48.516Z,8.90
2017-09-21T00:09:16.023Z,9.73
2017-09-21T00:11:43.525Z,12.73
2017-09-21T00:14:11.047Z,12.43
2017-09-21T00:16:38.542Z,7.40
2017-09-21T00:19:06.075Z,7.87
2017-09-21T00:21:33.588Z,7.23
2017-09-21T00:24:01.108Z,9.07
2017-09-21T00:26:28.731Z,12.30
2017-09-21T00:28:56.241Z,10.60
2017-09-21T00:31:23.741Z,9.90
2017-09-21T00:33:51.242Z,10.67
2017-09-21T00:36:18.744Z,10.23
2017-09-21T00:38:46.252Z,9.67
2017-09-21T00:41:13.772Z,10.40
2017-09-21T00:43:41.284Z,11.07
2017-09-21T00:46:08.800Z,13.37
2017-09-21T00:48:36.300Z,12.80
2017-09-21T00:51:03.810Z,14.20
2017-09-21T00:53:31.322Z,9.73
2017-09-21T00:55:58.833Z,11.97
2017-09-21T00:58:26.348Z,19.33
2017-09-21T01:00:53.865Z,10.10
2017-09-21T01:03:21.368Z,11.20
2017-09-21T01:05:48.920Z,10.70
2017-09-21T01:08:16.431Z,22.10
2017-09-21T01:10:43.931Z,11.40
2017-09-21T01:13:11.444Z,29.80
2017-09-21T01:15:38.964Z,17.60
2017-09-21T01:18:06.488Z,31.60
2017-09-21T01:20:33.996Z,21.10
2017-09-21T01:23:01.519Z,25.87
2017-09-21T01:25:29.072Z,22.03
2017-09-21T01:27:57.443Z,29.00
2017-09-21T01:30:24.962Z,10.27
2017-09-21T01:32:52.465Z,13.10
2017-09-21T01:35:19.982Z,23.47
2017-09-21T01:37:47.491Z,10.20
2017-09-21T01:40:15.018Z,11.13
2017-09-21T01:42:42.515Z,8.97
2017-09-21T01:45:10.075Z,13.20
2017-09-21T01:47:37.599Z,12.83
2017-09-21T01:50:05.117Z,14.67
2017-09-21T01:52:32.627Z,22.03
2017-09-21T01:55:00.146Z,8.40
2017-09-21T01:57:27.667Z,8.73
2017-09-21T01:59:55.185Z,12.20
2017-09-21T02:02:22.681Z,17.03
2017-09-21T02:04:50.197Z,11.53
2017-09-21T02:07:17.727Z,13.20
2017-09-21T02:09:45.237Z,12.00
2017-09-21T02:12:12.743Z,9.67
2017-09-21T02:14:40.263Z,8.97
2017-09-21T02:17:07.758Z,8.17
2017-09-21T02:19:35.264Z,8.67
2017-09-21T02:22:02.767Z,15.40
2017-09-21T02:24:30.278Z,13.93
2017-09-21T02:26:57.804Z,15.63
2017-09-21T02:29:25.311Z,10.80
2017-09-21T02:31:52.835Z,14.80
2017-09-21T02:34:20.340Z,20.57
2017-09-21T02:36:47.847Z,19.93
2017-09-21T02:39:15.351Z,12.30
2017-09-21T02:41:44.715Z,9.70
2017-09-21T02:44:12.223Z,14.30
2017-09-21T02:46:39.747Z,12.73
2017-09-21T02:49:07.270Z,16.00
2017-09-21T02:51:34.775Z,14.50
2017-09-21T02:54:02.308Z,28.73
2017-09-21T02:56:29.885Z,37.23
2017-09-21T02:58:57.412Z,32.43
2017-09-21T03:01:24.920Z,18.23
2017-09-21T03:03:52.440Z,26.37
2017-09-21T03:06:19.950Z,24.10
2017-09-21T03:08:47.476Z,33.23
2017-09-21T03:11:14.993Z,22.87
2017-09-21T03:13:42.518Z,29.63
2017-09-21T03:16:10.020Z,32.57
2017-09-21T03:18:37.524Z,20.00
2017-09-21T03:21:05.027Z,32.10
2017-09-21T03:23:32.540Z,7.37
2017-09-21T03:26:00.044Z,19.23
2017-09-21T03:28:27.570Z,14.40
2017-09-21T03:30:55.089Z,9.57
2017-09-21T03:33:22.609Z,15.97
2017-09-21T03:35:50.133Z,14.53
2017-09-21T03:38:17.709Z,26.03
2017-09-21T03:40:45.227Z,16.40
2017-09-21T03:43:12.732Z,33.83
2017-09-21T03:45:40.246Z,27.70
2017-09-21T03:48:07.749Z,37.47
2017-09-21T03:50:35.257Z,29.53
2017-09-21T03:53:02.772Z,30.47
2017-09-21T03:55:30.303Z,44.43
2017-09-21T03:57:57.811Z,34.70
2017-09-21T04:00:25.326Z,44.90
2017-09-21T04:02:52.839Z,37.33
2017-09-21T04:05:20.382Z,25.23
2017-09-21T04:07:47.883Z,45.67
2017-09-21T04:10:15.397Z,41.67
2017-09-21T04:12:42.938Z,41.77
2017-09-21T04:15:10.452Z,29.73
2017-09-21T04:17:37.963Z,17.97
2017-09-21T04:20:05.491Z,21.83
2017-09-21T04:22:33.016Z,18.97
2017-09-21T04:25:00.526Z,25.10
2017-09-21T04:27:28.078Z,22.33
2017-09-21T04:29:55.575Z,33.20
2017-09-21T04:32:23.097Z,31.40
2017-09-21T04:41:36.562Z,21.23
2017-09-21T04:44:04.089Z,18.00
2017-09-21T04:46:31.607Z,21.40
2017-09-21T04:48:59.127Z,39.30
2017-09-21T04:51:26.663Z,29.07
2017-09-21T04:53:54.247Z,34.73
2017-09-21T04:56:21.765Z,43.27
2017-09-21T04:58:49.300Z,44.20
2017-09-21T05:01:16.836Z,26.87
2017-09-21T05:03:44.395Z,28.80
2017-09-21T05:06:11.990Z,23.83
2017-09-21T05:08:39.502Z,26.13
2017-09-21T05:11:07.044Z,27.70
2017-09-21T05:13:34.556Z,20.93
2017-09-21T05:16:02.066Z,22.53
2017-09-21T05:18:29.588Z,16.13
2017-09-21T05:20:57.104Z,11.00
2017-09-21T05:23:24.611Z,9.40
2017-09-21T05:25:52.116Z,11.23
2017-09-21T05:28:19.619Z,9.50
2017-09-21T05:30:47.146Z,9.50
2017-09-21T05:33:14.663Z,12.47
2017-09-21T05:35:42.182Z,11.10
2017-09-21T05:38:09.703Z,14.73
2017-09-21T05:40:37.216Z,13.70
2017-09-21T05:43:04.715Z,12.57
2017-09-21T05:45:32.227Z,13.33
2017-09-21T05:47:59.725Z,11.60
2017-09-21T05:50:27.239Z,9.43
2017-09-21T05:52:54.740Z,8.87
2017-09-21T05:55:22.248Z,15.77
2017-09-21T05:57:49.756Z,14.97
2017-09-21T06:00:17.271Z,22.33
2017-09-21T06:02:44.777Z,10.33
2017-09-21T06:05:12.304Z,14.53
2017-09-21T06:07:39.936Z,10.40
2017-09-21T06:10:07.442Z,10.10
2017-09-21T06:12:34.961Z,12.40
2017-09-21T06:15:02.663Z,12.93
2017-09-21T06:17:30.185Z,14.70
2017-09-21T06:19:57.702Z,29.83
2017-09-21T06:22:25.246Z,12.43
2017-09-21T06:24:52.774Z,17.47
2017-09-21T06:27:20.290Z,22.50
2017-09-21T06:29:47.814Z,18.87
2017-09-21T06:32:15.340Z,13.33
2017-09-21T06:34:42.877Z,27.20
2017-09-21T06:37:10.540Z,19.07
2017-09-21T06:39:38.069Z,20.43
2017-09-21T06:42:05.895Z,17.73
2017-09-21T06:44:33.407Z,18.97
2017-09-21T06:47:00.918Z,16.33
2017-09-21T06:49:28.431Z,23.53
2017-09-21T06:51:55.944Z,20.00
2017-09-21T06:54:23.470Z,18.23
2017-09-21T06:56:51.086Z,22.20
2017-09-21T06:59:18.626Z,24.90
2017-09-21T07:01:46.275Z,22.30
2017-09-21T07:04:13.811Z,19.10
2017-09-21T07:06:41.326Z,24.97
2017-09-21T07:09:08.835Z,39.33
2017-09-21T07:11:36.356Z,22.90
2017-09-21T07:14:03.895Z,20.43
2017-09-21T07:16:31.411Z,25.30
2017-09-21T07:18:58.988Z,20.87
2017-09-21T07:21:26.512Z,13.97
2017-09-21T07:23:54.044Z,15.77
2017-09-21T07:26:21.600Z,13.83
2017-09-21T07:28:49.129Z,15.27
2017-09-21T07:31:16.680Z,19.03
2017-09-21T07:33:44.222Z,24.03
2017-09-21T07:36:11.740Z,13.47
2017-09-21T07:38:39.264Z,22.63
2017-09-21T07:41:06.806Z,88.57
2017-09-21T07:43:34.324Z,22.20
2017-09-21T07:46:01.847Z,22.37
2017-09-21T07:48:29.379Z,14.17
2017-09-21T07:50:56.911Z,12.80
2017-09-21T07:53:24.435Z,12.63
2017-09-21T07:55:51.976Z,13.20
2017-09-21T07:58:19.481Z,16.63
2017-09-21T08:00:46.988Z,12.33
2017-09-21T08:03:14.494Z,12.30
2017-09-21T08:05:42.023Z,14.93
2017-09-21T08:08:09.537Z,16.57
2017-09-21T08:10:37.066Z,13.83
2017-09-21T08:13:04.605Z,13.30
2017-09-21T08:15:32.172Z,12.70
2017-09-21T08:17:59.692Z,14.37
2017-09-21T08:20:27.213Z,14.40
2017-09-21T08:22:54.733Z,21.23
2017-09-21T08:25:22.247Z,16.20
2017-09-21T08:27:49.769Z,15.80
2017-09-21T08:30:17.296Z,16.67
2017-09-21T08:32:44.827Z,14.63
2017-09-21T08:35:12.357Z,13.17
2017-09-21T08:37:39.878Z,13.57
2017-09-21T08:40:07.416Z,14.77
2017-09-21T08:42:34.953Z,14.60
2017-09-21T08:45:02.491Z,16.10
2017-09-21T08:47:30.031Z,14.67
2017-09-21T08:49:57.547Z,13.80
2017-09-21T08:52:25.052Z,14.40
2017-09-21T08:54:52.598Z,13.53
2017-09-21T08:57:20.163Z,14.40
2017-09-21T08:59:47.688Z,13.53
2017-09-21T09:02:15.212Z,13.07
2017-09-21T09:04:42.747Z,12.83
2017-09-21T09:07:10.275Z,13.83
2017-09-21T09:09:37.785Z,12.87
2017-09-21T09:12:05.299Z,12.60
2017-09-21T09:14:33.714Z,14.30
2017-09-21T09:17:01.255Z,11.47
2017-09-21T09:19:28.771Z,12.33
2017-09-21T09:21:56.308Z,11.03
2017-09-21T09:24:23.850Z,11.57
2017-09-21T09:26:51.373Z,11.87
2017-09-21T09:29:18.916Z,11.53
2017-09-21T09:31:46.424Z,11.43
2017-09-21T09:34:13.935Z,10.47
2017-09-21T09:36:41.440Z,9.97
2017-09-21T09:39:08.956Z,10.73
2017-09-21T09:41:36.463Z,10.97
2017-09-21T09:44:03.984Z,11.47
2017-09-21T09:46:31.491Z,10.40
2017-09-21T09:48:59.027Z,9.70
2017-09-21T09:51:26.535Z,13.23
2017-09-21T09:53:54.060Z,10.67
2017-09-21T09:56:21.563Z,10.43
2017-09-21T09:58:49.104Z,7.83
2017-09-21T10:01:16.626Z,9.13
2017-09-21T10:03:44.137Z,9.97
2017-09-21T10:06:11.655Z,8.50
2017-09-21T10:08:39.190Z,9.50
2017-09-21T10:11:06.697Z,9.23
2017-09-21T10:13:34.225Z,9.67
2017-09-21T10:16:01.742Z,10.40
2017-09-21T10:18:29.260Z,10.93
2017-09-21T10:20:56.795Z,12.33
2017-09-21T10:23:24.326Z,9.60
2017-09-21T10:25:51.877Z,10.60
2017-09-21T10:28:19.482Z,8.93
2017-09-21T10:30:47.034Z,8.53
2017-09-21T10:33:14.697Z,15.97
2017-09-21T10:35:42.197Z,8.67
2017-09-21T10:38:09.707Z,7.90
2017-09-21T10:40:37.222Z,8.40
2017-09-21T10:43:04.736Z,7.00
2017-09-21T10:45:32.256Z,8.53
2017-09-21T10:47:59.761Z,6.83
2017-09-21T10:50:27.305Z,7.47
2017-09-21T10:52:54.830Z,6.67
2017-09-21T10:55:22.368Z,5.87
2017-09-21T10:57:49.883Z,4.73
2017-09-21T11:00:17.403Z,5.20
2017-09-21T11:02:44.926Z,4.83
2017-09-21T11:05:12.438Z,7.03
2017-09-21T11:07:39.964Z,6.20
2017-09-21T11:10:07.479Z,6.33
2017-09-21T11:12:34.984Z,6.80
2017-09-21T11:15:02.498Z,6.87
2017-09-21T11:17:30.011Z,6.77
2017-09-21T11:19:57.517Z,5.40
2017-09-21T11:22:25.026Z,5.77
2017-09-21T11:24:52.535Z,6.10
2017-09-21T11:27:20.058Z,5.60
2017-09-21T11:29:47.570Z,7.53
2017-09-21T11:32:15.104Z,5.63
2017-09-21T11:34:42.697Z,4.60
2017-09-21T11:37:10.242Z,5.67
2017-09-21T11:39:37.771Z,5.50
2017-09-21T11:42:05.600Z,5.87
2017-09-21T11:44:33.237Z,5.43
2017-09-21T11:47:00.738Z,7.10
2017-09-21T11:49:28.255Z,6.23
2017-09-21T11:51:55.763Z,7.47
2017-09-21T11:54:23.291Z,7.33
2017-09-21T11:56:50.790Z,7.50
2017-09-21T11:59:18.309Z,7.90
2017-09-21T12:01:46.559Z,6.80
2017-09-21T12:04:14.079Z,7.90
2017-09-21T12:06:41.593Z,6.40
2017-09-21T12:09:09.123Z,7.30
2017-09-21T12:11:36.668Z,12.50
2017-09-21T12:14:04.188Z,7.47
2017-09-21T12:16:31.692Z,8.83
2017-09-21T12:18:59.203Z,7.13
2017-09-21T12:21:26.704Z,6.33
2017-09-21T12:23:54.218Z,5.57
2017-09-21T12:26:21.729Z,6.10
2017-09-21T12:28:49.254Z,5.73
2017-09-21T12:31:16.767Z,6.77
2017-09-21T12:33:44.271Z,7.10
2017-09-21T12:36:11.812Z,10.53
2017-09-21T12:38:39.327Z,6.47
2017-09-21T12:41:06.831Z,8.40
2017-09-21T12:43:34.379Z,6.93
2017-09-21T12:46:01.906Z,6.00
2017-09-21T12:48:29.429Z,6.10
2017-09-21T12:50:56.957Z,7.33
2017-09-21T12:53:24.468Z,8.70
2017-09-21T12:55:52.003Z,6.40
2017-09-21T12:58:19.507Z,7.60
2017-09-21T13:00:47.036Z,5.73
2017-09-21T13:03:14.543Z,6.90
2017-09-21T13:05:42.075Z,8.53
2017-09-21T13:08:09.601Z,6.30
2017-09-21T13:10:37.127Z,5.00
2017-09-21T13:13:04.633Z,6.37
2017-09-21T13:15:32.167Z,4.90
2017-09-21T13:17:59.676Z,4.90
2017-09-21T13:20:27.200Z,5.63
2017-09-21T13:22:54.700Z,7.37
2017-09-21T13:25:22.220Z,6.13
2017-09-21T13:27:49.733Z,7.70
2017-09-21T13:30:17.249Z,7.53
2017-09-21T13:32:44.769Z,8.33
2017-09-21T13:35:12.309Z,4.77
2017-09-21T13:37:39.840Z,5.73
2017-09-21T13:40:07.364Z,4.97
2017-09-21T13:42:34.878Z,4.13
2017-09-21T13:45:02.395Z,2.27
2017-09-21T13:47:38.976Z,3.90
2017-09-21T13:50:06.508Z,4.07
2017-09-21T13:52:34.163Z,3.00
2017-09-21T13:57:45.892Z,4.03
2017-09-21T14:00:13.419Z,4.47
2017-09-21T14:02:40.940Z,4.40
2017-09-21T14:05:08.476Z,5.83
2017-09-21T14:07:36.012Z,4.77
2017-09-21T14:10:03.567Z,5.57
2017-09-21T14:12:31.084Z,5.07
2017-09-21T14:14:58.613Z,4.03
2017-09-21T14:17:26.152Z,4.70
2017-09-21T14:19:53.669Z,3.37
2017-09-21T14:22:21.192Z,2.80
2017-09-21T14:24:48.710Z,4.07
2017-09-21T14:27:16.237Z,3.20
2017-09-21T14:29:43.758Z,3.70
2017-09-21T14:32:11.268Z,2.87
2017-09-21T14:34:38.775Z,3.40
2017-09-21T14:37:06.287Z,3.10
2017-09-21T14:39:33.803Z,4.17
2017-09-21T14:42:01.309Z,3.40
2017-09-21T14:44:28.939Z,3.37
2017-09-21T14:46:56.472Z,7.33
2017-09-21T14:49:23.970Z,2.63
2017-09-21T14:51:51.488Z,3.40
2017-09-21T14:54:20.006Z,4.30
2017-09-21T14:56:47.521Z,6.17
2017-09-21T14:59:15.052Z,6.80
2017-09-21T15:01:42.555Z,4.90
2017-09-21T15:04:10.080Z,3.50
2017-09-21T15:06:37.588Z,4.67
2017-09-21T15:09:05.126Z,6.30
2017-09-21T15:11:32.641Z,4.83
2017-09-21T15:14:00.146Z,4.40
2017-09-21T15:16:27.689Z,3.47
2017-09-21T15:18:55.213Z,5.33
2017-09-21T15:21:22.728Z,3.40
2017-09-21T15:23:50.235Z,3.07
2017-09-21T15:26:17.744Z,7.93
2017-09-21T15:28:45.279Z,2.73
2017-09-21T15:31:12.783Z,3.60
2017-09-21T15:33:40.331Z,3.93
2017-09-21T15:36:07.931Z,4.77
2017-09-21T15:38:35.438Z,3.90
2017-09-21T15:41:03.010Z,4.70
2017-09-21T15:43:30.522Z,3.17
2017-09-21T15:45:58.043Z,2.60
2017-09-21T15:48:25.556Z,3.27
2017-09-21T15:50:53.080Z,5.07
2017-09-21T15:53:20.600Z,2.70
2017-09-21T15:55:48.103Z,3.90
2017-09-21T15:58:15.626Z,6.40
2017-09-21T16:00:43.136Z,2.77
2017-09-21T16:03:10.653Z,5.90
2017-09-21T16:05:38.172Z,5.30
2017-09-21T16:08:05.680Z,3.30
2017-09-21T16:10:33.209Z,2.93
2017-09-21T16:13:00.719Z,3.83
2017-09-21T16:15:28.233Z,2.67
2017-09-21T16:17:55.793Z,3.00
2017-09-21T16:20:23.293Z,3.57
2017-09-21T16:22:50.811Z,3.90
2017-09-21T16:25:18.330Z,6.00
2017-09-21T16:27:45.885Z,2.73
2017-09-21T16:30:13.410Z,6.40
2017-09-21T16:32:41.039Z,8.43
2017-09-21T16:35:08.540Z,6.50
2017-09-21T16:37:36.150Z,2.80
2017-09-21T16:40:03.687Z,10.60
2017-09-21T16:42:31.212Z,2.67
2017-09-21T16:44:58.735Z,4.40
2017-09-21T16:47:26.250Z,4.40
2017-09-21T16:49:54.086Z,6.63
2017-09-21T16:52:21.615Z,2.90
2017-09-21T16:54:49.124Z,3.37
2017-09-21T16:57:16.654Z,2.10
2017-09-21T16:59:44.209Z,4.93
2017-09-21T17:02:11.789Z,5.57
2017-09-21T17:04:39.313Z,2.97
2017-09-21T17:07:06.829Z,2.73
2017-09-21T17:09:34.359Z,8.23
2017-09-21T17:12:01.891Z,3.13
2017-09-21T17:14:29.406Z,4.40
2017-09-21T17:16:56.918Z,4.80
2017-09-21T17:19:24.460Z,5.97
2017-09-21T17:21:51.982Z,25.67
2017-09-21T17:24:19.604Z,11.17
2017-09-21T17:26:47.155Z,14.23
2017-09-21T17:29:14.699Z,4.53
2017-09-21T17:31:42.212Z,3.60
2017-09-21T17:34:09.732Z,6.13
2017-09-21T17:36:37.238Z,4.13
2017-09-21T17:39:04.766Z,3.77
2017-09-21T17:41:32.410Z,6.60
2017-09-21T17:43:59.947Z,4.00
2017-09-21T17:46:27.644Z,2.60
2017-09-21T17:48:55.180Z,5.23
2017-09-21T17:51:22.732Z,5.30
2017-09-21T17:53:50.256Z,6.00
2017-09-21T17:56:17.762Z,6.73
2017-09-21T17:58:45.272Z,7.07
2017-09-21T18:01:12.803Z,3.97
2017-09-21T18:03:40.327Z,3.40
2017-09-21T18:06:07.895Z,9.87
2017-09-21T18:08:35.433Z,3.60
2017-09-21T18:11:02.932Z,4.00
2017-09-21T18:13:30.451Z,3.50
2017-09-21T18:15:57.960Z,3.00
2017-09-21T18:18:25.466Z,3.53
2017-09-21T18:20:53.086Z,3.33
2017-09-21T18:23:20.634Z,4.50
2017-09-21T18:25:48.155Z,5.83
2017-09-21T18:28:15.716Z,5.30
2017-09-21T18:30:43.232Z,7.13
2017-09-21T18:33:10.771Z,4.60
2017-09-21T18:35:38.308Z,5.60
2017-09-21T18:38:05.843Z,5.30
2017-09-21T18:40:33.362Z,4.90
2017-09-21T18:43:00.922Z,4.90
2017-09-21T18:45:28.445Z,5.87
2017-09-21T18:47:55.978Z,5.30
2017-09-21T18:50:23.502Z,6.60
2017-09-21T18:52:51.037Z,5.40
2017-09-21T18:55:18.536Z,5.43
2017-09-21T18:57:47.360Z,5.23
2017-09-21T19:00:14.889Z,5.73
2017-09-21T19:02:42.426Z,7.53
2017-09-21T19:05:09.988Z,5.33
2017-09-21T19:07:37.531Z,5.23
2017-09-21T19:10:05.210Z,5.50
2017-09-21T19:12:32.787Z,10.07
2017-09-21T19:15:00.408Z,6.13
2017-09-21T19:17:27.922Z,5.23
2017-09-21T19:19:55.446Z,5.53
2017-09-21T19:22:22.967Z,8.57
2017-09-21T19:24:50.490Z,6.10
2017-09-21T19:27:18.004Z,5.73
2017-09-21T19:29:45.523Z,5.50
2017-09-21T19:32:13.057Z,6.47
2017-09-21T19:34:40.627Z,5.73
2017-09-21T19:37:08.166Z,5.50
2017-09-21T19:39:35.680Z,7.30
2017-09-21T19:42:03.229Z,7.00
2017-09-21T19:44:31.469Z,6.20
2017-09-21T19:46:59.499Z,23.83
2017-09-21T19:49:27.107Z,5.57
2017-09-21T19:51:54.651Z,6.37
2017-09-21T19:54:22.177Z,6.10
2017-09-21T19:56:49.707Z,10.03
2017-09-21T19:59:17.248Z,5.20
2017-09-21T20:01:44.764Z,5.87
2017-09-21T20:04:12.295Z,5.20
2017-09-21T20:06:39.822Z,5.83
2017-09-21T20:09:07.363Z,5.60
2017-09-21T20:11:34.879Z,57.57
2017-09-21T20:14:02.406Z,7.77
2017-09-21T20:16:29.927Z,6.30
2017-09-21T20:18:57.451Z,8.80
2017-09-21T20:21:24.979Z,6.47
2017-09-21T20:23:52.511Z,7.50
2017-09-21T20:26:20.076Z,6.50
2017-09-21T20:28:47.603Z,10.27
2017-09-21T20:31:15.118Z,7.53
2017-09-21T20:33:42.632Z,8.40
2017-09-21T20:36:10.152Z,9.47
2017-09-21T20:38:37.665Z,6.33
2017-09-21T20:41:05.200Z,10.53
2017-09-21T20:43:32.725Z,7.33
2017-09-21T20:46:00.258Z,8.50
2017-09-21T20:48:27.760Z,6.00
2017-09-21T20:50:55.272Z,16.50
2017-09-21T20:53:22.778Z,8.67
2017-09-21T20:55:50.297Z,6.63
2017-09-21T20:58:17.821Z,5.97
2017-09-21T21:00:45.340Z,6.37
2017-09-21T21:03:12.840Z,6.00
2017-09-21T21:05:40.361Z,8.07
2017-09-21T21:08:07.890Z,8.20
2017-09-21T21:10:35.412Z,7.30
2017-09-21T21:13:02.920Z,7.43
2017-09-21T21:15:30.422Z,7.00
2017-09-21T21:17:58.121Z,6.97
2017-09-21T21:20:25.639Z,8.43
2017-09-21T21:22:53.218Z,10.90
2017-09-21T21:25:20.724Z,9.37
2017-09-21T21:27:48.272Z,13.83
2017-09-21T21:30:15.778Z,7.97
2017-09-21T21:32:43.451Z,8.40
2017-09-21T21:35:11.011Z,10.80
2017-09-21T21:37:38.526Z,7.67
2017-09-21T21:40:06.066Z,9.83
2017-09-21T21:42:33.598Z,10.63
2017-09-21T21:45:01.118Z,10.50
2017-09-21T21:47:28.636Z,9.27
2017-09-21T21:49:56.154Z,9.63
2017-09-21T21:52:23.668Z,7.63
2017-09-21T21:54:51.173Z,9.13
2017-09-21T21:57:18.694Z,9.33
2017-09-21T21:59:46.217Z,9.83
2017-09-21T22:02:13.838Z,8.73
2017-09-21T22:04:41.359Z,8.30
2017-09-21T22:07:08.867Z,9.50
2017-09-21T22:09:36.389Z,10.63
2017-09-21T22:12:03.988Z,13.13
2017-09-21T22:14:31.532Z,15.73
2017-09-21T22:16:59.026Z,9.70
2017-09-21T22:19:26.553Z,13.83
2017-09-21T22:21:54.067Z,10.27
2017-09-21T22:24:21.572Z,13.43
2017-09-21T22:26:49.095Z,9.13
2017-09-21T22:29:16.586Z,8.10
2017-09-21T22:32:32.535Z,8.33
2017-09-21T22:35:00.042Z,8.80
2017-09-21T22:37:27.556Z,11.33
2017-09-21T22:39:55.068Z,20.20
2017-09-21T22:42:22.566Z,9.30
2017-09-21T22:44:50.071Z,9.00
2017-09-21T22:47:17.586Z,10.67
2017-09-21T22:49:45.091Z,9.10
2017-09-21T22:52:12.613Z,11.87
2017-09-21T22:54:40.116Z,10.87
2017-09-21T22:57:07.616Z,8.60
2017-09-21T22:59:35.130Z,12.53
2017-09-21T23:02:02.653Z,7.97
2017-09-21T23:04:30.159Z,8.13
2017-09-21T23:06:57.681Z,8.03
2017-09-21T23:09:25.200Z,11.13
2017-09-21T23:11:52.713Z,9.00
2017-09-21T23:14:20.230Z,9.43
2017-09-21T23:16:47.732Z,7.97
2017-09-21T23:19:15.245Z,11.40
2017-09-21T23:28:28.527Z,8.90
2017-09-21T23:30:56.042Z,13.43
2017-09-21T23:33:23.562Z,8.40
2017-09-21T23:35:51.107Z,8.00
2017-09-21T23:38:18.610Z,8.20
2017-09-21T23:40:46.136Z,7.90
2017-09-21T23:43:13.647Z,13.37
2017-09-21T23:45:41.166Z,8.03
2017-09-21T23:48:08.687Z,7.43
2017-09-21T23:50:36.195Z,12.53
2017-09-21T23:53:03.826Z,7.80
2017-09-21T23:55:31.340Z,7.50
2017-09-21T23:57:58.868Z,8.63
